Time;durP1;ratioP1;P1;durP2;ratioP2;P2;SDS_P1;SDS_P2;PMS_P1;PMS_P2;Temp;Humidity;BMP_temperature;BMP_pressure;BME280_temperature;BME280_humidity;BME280_pressure;Samples;Min_cycle;Max_cycle;Signal;HPM_P1;HPM_P2
2022/09/07 00:01:22;;;;;;;5.13;4.72;;;;;;;17.02;66.30;95382.53;5056871;28;20229;-71
2022/09/07 00:03:48;;;;;;;5.65;4.30;;;;;;;16.98;66.28;95388.09;5055708;28;20190;-71
2022/09/07 00:06:15;;;;;;;4.97;4.57;;;;;;;16.95;66.09;95379.69;5055180;28;20193;-71
2022/09/07 00:08:43;;;;;;;4.80;4.40;;;;;;;16.91;65.89;95381.66;5055479;28;20213;-72
2022/09/07 00:11:13;;;;;;;4.90;4.50;;;;;;;16.91;66.35;95390.03;5055468;28;20198;-72
2022/09/07 00:13:41;;;;;;;4.60;4.25;;;;;;;16.90;66.38;95382.84;5055654;28;20193;-72
2022/09/07 00:16:10;;;;;;;4.70;4.30;;;;;;;16.86;66.41;95382.81;5055363;28;20193;-72
2022/09/07 00:18:40;;;;;;;4.65;4.35;;;;;;;16.82;65.67;95382.00;5056688;28;20647;-71
2022/09/07 00:21:09;;;;;;;4.53;4.22;;;;;;;16.80;66.08;95385.16;5055791;28;20205;-72
2022/09/07 00:23:37;;;;;;;5.60;4.10;;;;;;;16.80;66.23;95382.38;5089296;28;20212;-72
2022/09/07 00:26:07;;;;;;;4.70;4.40;;;;;;;16.78;65.95;95376.41;5088897;28;20194;-72
2022/09/07 00:28:35;;;;;;;5.20;4.70;;;;;;;16.75;66.17;95373.59;5056044;28;20201;-72
2022/09/07 00:31:02;;;;;;;4.78;4.38;;;;;;;16.70;66.08;95371.91;5055475;28;20240;-72
2022/09/07 00:33:29;;;;;;;5.00;4.60;;;;;;;16.70;66.62;95374.69;5055637;28;20197;-72
2022/09/07 00:35:57;;;;;;;5.00;4.50;;;;;;;16.68;66.54;95376.28;5055519;28;20190;-72
2022/09/07 00:38:24;;;;;;;5.43;4.93;;;;;;;16.66;66.35;95381.44;5056782;28;20190;-72
2022/09/07 00:40:52;;;;;;;5.35;4.95;;;;;;;16.63;66.28;95379.41;5055265;28;20201;-72
2022/09/07 00:43:30;;;;;;;5.03;4.55;;;;;;;16.61;66.54;95386.16;5055244;28;20201;-72
2022/09/07 00:45:57;;;;;;;4.90;4.45;;;;;;;16.54;66.87;95388.09;5054945;28;20205;-71
2022/09/07 00:48:28;;;;;;;5.20;4.80;;;;;;;16.49;67.20;95380.88;5055634;28;20217;-71
2022/09/07 00:50:59;;;;;;;5.38;4.88;;;;;;;16.49;67.31;95380.88;5056064;28;20194;-71
2022/09/07 00:53:28;;;;;;;5.53;5.03;;;;;;;16.50;67.16;95382.47;5054807;28;20204;-71
2022/09/07 00:55:56;;;;;;;5.53;5.10;;;;;;;16.49;67.14;95382.88;5055101;28;20194;-71
2022/09/07 00:58:23;;;;;;;5.20;4.80;;;;;;;16.46;67.52;95378.06;5055616;28;20197;-71
2022/09/07 01:00:50;;;;;;;5.30;4.80;;;;;;;16.42;67.50;95378.03;5055682;28;20194;-71
2022/09/07 01:03:20;;;;;;;5.22;4.72;;;;;;;16.44;67.37;95369.28;5055115;28;20197;-71
2022/09/07 01:05:50;;;;;;;5.32;4.80;;;;;;;16.44;67.31;95374.84;5088158;28;20296;-71
2022/09/07 01:08:19;;;;;;;5.07;4.68;;;;;;;16.40;67.66;95368.47;5054094;28;20238;-71
2022/09/07 01:10:46;;;;;;;4.75;4.35;;;;;;;16.39;67.47;95369.66;5054442;28;20615;-71
2022/09/07 01:13:13;;;;;;;4.90;4.50;;;;;;;16.36;68.00;95368.44;5054723;28;20233;-71
2022/09/07 01:15:45;;;;;;;5.35;4.85;;;;;;;16.35;67.52;95361.28;5054265;28;20556;-71
2022/09/07 01:18:21;;;;;;;4.75;4.32;;;;;;;16.26;67.80;95369.13;5054545;28;20205;-71
2022/09/07 01:21:24;;;;;;;5.18;4.78;;;;;;;16.23;67.62;95367.91;5054547;28;20200;-71
2022/09/07 01:24:19;;;;;;;5.20;4.80;;;;;;;16.23;67.31;95370.69;5068032;28;20211;-71
2022/09/07 01:27:12;;;;;;;5.70;4.80;;;;;;;16.23;67.68;95367.91;5054032;28;20212;-71
2022/09/07 01:29:44;;;;;;;5.22;4.72;;;;;;;16.22;67.90;95366.28;5054020;28;20220;-71
2022/09/07 01:32:14;;;;;;;5.40;4.78;;;;;;;16.22;68.11;95368.28;5054056;28;20656;-71
2022/09/07 01:34:43;;;;;;;5.57;5.07;;;;;;;16.17;68.33;95366.66;5054767;28;20201;-71
2022/09/07 01:37:16;;;;;;;5.25;4.85;;;;;;;16.19;67.71;95360.69;5055178;28;20247;-71
2022/09/07 01:39:48;;;;;;;4.90;4.50;;;;;;;16.16;68.28;95356.72;5054430;28;20202;-71
2022/09/07 01:42:15;;;;;;;5.57;5.03;;;;;;;16.16;67.69;95367.84;5054287;28;20186;-71
2022/09/07 01:44:46;;;;;;;4.95;4.55;;;;;;;16.13;68.24;95371.38;5054301;28;20209;-71
2022/09/07 01:47:17;;;;;;;5.45;4.95;;;;;;;16.09;68.51;95365.78;5055091;28;20189;-71
2022/09/07 01:49:48;;;;;;;5.18;4.68;;;;;;;16.06;68.49;95371.31;5053821;28;20218;-71
2022/09/07 01:52:17;;;;;;;5.50;5.03;;;;;;;16.08;68.41;95368.94;5054083;28;20194;-71
2022/09/07 01:54:48;;;;;;;5.00;4.55;;;;;;;16.05;68.80;95370.50;5054072;28;20194;-71
2022/09/07 01:57:18;;;;;;;5.00;4.60;;;;;;;16.04;68.48;95366.09;5057010;28;20198;-71
2022/09/07 01:59:49;;;;;;;5.32;4.70;;;;;;;16.07;68.17;95364.56;5057975;28;20586;-71
2022/09/07 02:02:18;;;;;;;5.32;4.85;;;;;;;16.07;68.73;95364.56;5057913;28;20189;-71
2022/09/07 02:04:48;;;;;;;5.40;4.90;;;;;;;16.05;68.24;95355.78;5058491;28;20668;-71
2022/09/07 02:07:19;;;;;;;4.85;4.47;;;;;;;16.08;68.68;95357.81;5057981;28;20233;-71
2022/09/07 02:09:49;;;;;;;5.35;4.85;;;;;;;16.03;68.56;95358.94;5058136;28;20244;-71
2022/09/07 02:12:21;;;;;;;5.07;4.68;;;;;;;16.01;68.40;95363.28;5058045;28;20206;-71
2022/09/07 02:14:53;;;;;;;5.45;5.03;;;;;;;15.99;68.70;95360.09;5057801;28;20648;-71
2022/09/07 02:17:31;;;;;;;5.53;4.93;;;;;;;15.99;68.80;95355.34;5057759;28;20239;-71
2022/09/07 02:20:03;;;;;;;7.20;5.47;;;;;;;15.99;68.27;95360.91;5057579;28;20198;-71
2022/09/07 02:22:32;;;;;;;5.85;5.30;;;;;;;16.00;68.21;95356.94;5057722;28;20223;-71
2022/09/07 02:25:00;;;;;;;5.63;5.13;;;;;;;15.97;68.49;95356.88;5058057;28;20640;-71
2022/09/07 02:27:29;;;;;;;5.47;5.03;;;;;;;15.92;68.38;95363.59;5057645;28;20209;-72
2022/09/07 02:29:57;;;;;;;5.50;5.00;;;;;;;15.89;68.60;95358.78;5057715;28;20218;-72
2022/09/07 02:32:24;;;;;;;6.28;5.50;;;;;;;15.91;68.83;95362.00;5057830;28;20197;-72
2022/09/07 02:34:50;;;;;;;5.53;5.10;;;;;;;15.89;68.75;95358.78;5057950;28;20197;-72
2022/09/07 02:37:18;;;;;;;5.68;5.10;;;;;;;15.88;68.79;95358.00;5057706;28;20205;-72
2022/09/07 02:39:45;;;;;;;5.65;5.18;;;;;;;15.88;68.63;95351.63;5057143;28;20198;-72
2022/09/07 02:42:11;;;;;;;5.50;5.10;;;;;;;15.85;68.63;95344.06;5057439;28;20198;-71
2022/09/07 02:44:39;;;;;;;6.82;5.50;;;;;;;15.81;68.65;95346.78;5057297;28;20194;-71
2022/09/07 02:47:16;;;;;;;5.72;5.30;;;;;;;15.77;68.74;95348.72;5057258;28;20610;-71
2022/09/07 02:49:54;;;;;;;5.18;4.68;;;;;;;15.76;68.89;95349.09;5057177;28;20671;-71
2022/09/07 02:52:24;;;;;;;5.40;4.90;;;;;;;15.74;69.16;95346.72;5056985;28;20190;-71
2022/09/07 02:55:01;;;;;;;5.72;5.13;;;;;;;15.71;69.19;95352.22;5057740;28;20198;-71
2022/09/07 02:57:37;;;;;;;5.72;5.22;;;;;;;15.68;69.30;95358.53;5057183;28;20228;-71
2022/09/07 03:00:09;;;;;;;6.97;6.38;;;;;;;15.69;69.03;95349.03;5057021;28;20202;-71
2022/09/07 03:02:45;;;;;;;6.53;5.88;;;;;;;15.70;69.11;95357.00;5056834;28;20210;-71
2022/09/07 03:05:17;;;;;;;5.93;5.43;;;;;;;15.70;68.69;95364.53;5057107;28;20506;-71
2022/09/07 03:07:47;;;;;;;5.95;5.50;;;;;;;15.66;68.76;95372.03;5056346;28;20237;-71
2022/09/07 03:10:15;;;;;;;7.85;7.05;;;;;;;15.62;69.10;95363.63;5056528;28;20221;-72
2022/09/07 03:12:43;;;;;;;5.65;5.15;;;;;;;15.61;69.13;95362.81;5056810;28;20209;-71
2022/09/07 03:15:11;;;;;;;5.97;5.22;;;;;;;15.55;69.17;95361.53;5056596;28;20213;-71
2022/09/07 03:17:40;;;;;;;5.40;4.90;;;;;;;15.50;69.03;95361.84;5056666;28;20232;-71
2022/09/07 03:20:08;;;;;;;6.10;5.20;;;;;;;15.46;69.11;95354.66;5056800;28;20190;-71
2022/09/07 03:22:34;;;;;;;5.80;5.30;;;;;;;15.44;68.77;95360.59;5056932;28;20205;-71
2022/09/07 03:25:03;;;;;;;5.68;4.97;;;;;;;15.46;68.75;95357.44;5057666;28;20194;-71
2022/09/07 03:27:30;;;;;;;5.28;4.88;;;;;;;15.42;68.75;95360.16;5056671;28;20198;-70
2022/09/07 03:29:56;;;;;;;5.43;4.68;;;;;;;15.40;68.77;95365.31;5056577;28;20218;-71
2022/09/07 03:32:23;;;;;;;5.60;5.20;;;;;;;15.36;69.42;95365.28;5056562;28;20672;-71
2022/09/07 03:34:52;;;;;;;5.55;5.15;;;;;;;15.36;69.62;95367.25;5056254;28;20209;-71
2022/09/07 03:37:18;;;;;;;6.32;5.35;;;;;;;15.36;69.31;95368.06;5056863;28;20599;-71
2022/09/07 03:39:45;;;;;;;5.72;5.30;;;;;;;15.33;69.74;95368.81;5056576;28;20202;-71
2022/09/07 03:42:12;;;;;;;5.85;5.07;;;;;;;15.32;69.61;95380.28;5055930;28;20201;-71
2022/09/07 03:44:38;;;;;;;5.90;5.43;;;;;;;15.33;69.54;95379.13;5056048;28;20194;-71
2022/09/07 03:47:05;;;;;;;5.85;5.35;;;;;;;15.30;69.62;95385.44;5056289;28;20197;-70
2022/09/07 03:49:32;;;;;;;5.72;5.18;;;;;;;15.31;69.25;95375.91;5055750;28;20228;-70
2022/09/07 03:52:01;;;;;;;6.32;5.40;;;;;;;15.32;69.04;95370.00;5056920;28;20680;-71
2022/09/07 03:54:28;;;;;;;5.28;4.88;;;;;;;15.32;69.27;95375.53;5055985;28;20204;-71
2022/09/07 03:56:55;;;;;;;5.70;5.20;;;;;;;15.25;69.21;95378.22;5056206;28;20198;-71
2022/09/07 03:59:22;;;;;;;5.20;4.80;;;;;;;15.22;69.35;95376.19;5056109;28;20198;-71
2022/09/07 04:01:48;;;;;;;5.72;5.22;;;;;;;15.17;69.46;95382.84;5056298;28;20208;-71
2022/09/07 04:04:15;;;;;;;6.55;5.72;;;;;;;15.19;69.72;95376.16;5056076;28;20606;-68
2022/09/07 04:06:42;;;;;;;6.75;5.28;;;;;;;15.19;69.53;95381.69;5055886;28;20240;-69
2022/09/07 04:09:13;;;;;;;6.10;5.32;;;;;;;15.19;69.32;95378.91;5055920;28;20216;-69
2022/09/07 04:11:40;;;;;;;6.32;5.20;;;;;;;15.16;69.25;95388.78;5056239;28;20194;-69
2022/09/07 04:14:16;;;;;;;5.85;5.35;;;;;;;15.15;69.65;95389.97;5056659;28;20264;-69
2022/09/07 04:16:44;;;;;;;6.35;5.55;;;;;;;15.15;69.13;95392.75;5057598;28;20194;-70
2022/09/07 04:19:13;;;;;;;5.47;5.00;;;;;;;15.12;69.22;95397.06;5055557;28;20292;-70
2022/09/07 04:21:42;;;;;;;5.63;5.03;;;;;;;15.11;69.36;95389.94;5056634;28;20204;-72
2022/09/07 04:24:09;;;;;;;5.68;5.18;;;;;;;15.11;69.22;95391.91;5057262;28;20213;-71
2022/09/07 04:26:37;;;;;;;5.32;4.82;;;;;;;15.10;69.69;95399.41;5055869;28;20202;-70
2022/09/07 04:29:05;;;;;;;5.53;5.07;;;;;;;15.11;69.67;95395.47;5055618;28;20696;-70
2022/09/07 04:31:33;;;;;;;5.93;5.32;;;;;;;15.11;69.40;95391.91;5055762;28;20204;-69
2022/09/07 04:34:00;;;;;;;5.97;5.35;;;;;;;15.14;69.30;95394.75;5055260;28;20618;-70
2022/09/07 04:36:27;;;;;;;6.20;5.60;;;;;;;15.12;69.09;95397.06;5055262;28;20212;-70
2022/09/07 04:38:54;;;;;;;5.70;5.20;;;;;;;15.13;69.44;95398.66;5055997;28;20189;-70
2022/09/07 04:41:21;;;;;;;7.70;5.53;;;;;;;15.13;68.93;95398.66;5055533;28;20201;-70
2022/09/07 04:43:52;;;;;;;6.93;5.57;;;;;;;15.16;69.08;95397.13;5056072;28;20186;-71
2022/09/07 04:46:21;;;;;;;6.13;5.40;;;;;;;15.17;68.90;95401.50;5055208;28;20193;-71
2022/09/07 04:48:48;;;;;;;6.07;5.43;;;;;;;15.16;69.05;95402.69;5055957;28;20201;-70
2022/09/07 04:51:15;;;;;;;5.93;5.32;;;;;;;15.15;68.64;95407.44;5056155;28;20273;-70
2022/09/07 04:53:42;;;;;;;6.07;5.45;;;;;;;15.18;68.60;95405.91;5056018;28;20190;-71
2022/09/07 04:56:08;;;;;;;7.68;5.28;;;;;;;15.19;68.72;95403.94;5055542;28;20205;-70
2022/09/07 04:58:35;;;;;;;5.55;4.80;;;;;;;15.22;68.77;95409.53;5055069;28;20200;-70
2022/09/07 05:01:05;;;;;;;6.80;5.57;;;;;;;15.21;68.47;95409.88;5055755;28;20200;-70
2022/09/07 05:03:33;;;;;;;6.07;5.43;;;;;;;15.20;68.89;95409.09;5055754;28;20186;-70
2022/09/07 05:06:01;;;;;;;6.88;4.97;;;;;;;15.21;69.09;95412.66;5054763;28;20193;-70
2022/09/07 05:08:28;;;;;;;5.43;4.93;;;;;;;15.23;68.95;95415.88;5054410;28;20233;-70
2022/09/07 05:10:56;;;;;;;5.45;4.95;;;;;;;15.25;68.96;95421.84;5054709;28;20228;-70
2022/09/07 05:13:24;;;;;;;5.63;4.82;;;;;;;15.24;68.57;95421.06;5054950;28;20198;-70
2022/09/07 05:15:51;;;;;;;5.30;4.80;;;;;;;15.27;68.82;95416.75;5054383;28;20201;-70
2022/09/07 05:18:20;;;;;;;6.60;5.00;;;;;;;15.32;68.55;95413.63;5054294;28;20197;-70
2022/09/07 05:20:46;;;;;;;5.15;4.55;;;;;;;15.31;68.77;95412.81;5055011;28;20259;-70
2022/09/07 05:23:13;;;;;;;5.20;4.60;;;;;;;15.34;68.97;95419.63;5054303;28;20198;-70
2022/09/07 05:25:43;;;;;;;5.18;4.60;;;;;;;15.37;68.97;95422.44;5054320;28;20240;-70
2022/09/07 05:28:10;;;;;;;6.00;5.40;;;;;;;15.39;68.62;95411.75;5054041;28;20202;-70
2022/09/07 05:30:37;;;;;;;5.47;4.93;;;;;;;15.39;68.27;95400.63;5054825;28;20225;-70
2022/09/07 05:33:04;;;;;;;5.30;4.78;;;;;;;15.37;68.84;95411.34;5054618;28;20216;-73
2022/09/07 05:35:32;;;;;;;5.30;4.80;;;;;;;15.40;68.35;95415.34;5054404;28;20194;-70
2022/09/07 05:37:59;;;;;;;5.55;4.72;;;;;;;15.44;68.12;95407.84;5054185;28;20201;-70
2022/09/07 05:40:26;;;;;;;5.20;4.75;;;;;;;15.46;67.40;95408.28;5054964;28;20205;-70
2022/09/07 05:42:52;;;;;;;6.82;4.95;;;;;;;15.46;67.63;95404.69;5054777;28;20194;-70
2022/09/07 05:45:19;;;;;;;5.20;4.70;;;;;;;15.45;67.99;95401.13;5054534;28;20197;-70
2022/09/07 05:47:49;;;;;;;6.70;5.30;;;;;;;15.52;67.91;95406.78;5054269;28;20201;-70
2022/09/07 05:50:17;;;;;;;5.50;5.00;;;;;;;15.59;67.23;95406.88;5054938;28;20275;-70
2022/09/07 05:52:46;;;;;;;7.10;5.13;;;;;;;15.62;66.87;95406.13;5053799;28;20228;-70
2022/09/07 05:55:13;;;;;;;5.60;5.10;;;;;;;15.64;66.79;95402.94;5054106;28;20204;-70
2022/09/07 05:57:40;;;;;;;7.03;5.03;;;;;;;15.68;66.95;95405.81;5054146;28;20201;-70
2022/09/07 06:00:08;;;;;;;5.82;5.25;;;;;;;15.71;66.28;95405.84;5053771;28;20213;-70
2022/09/07 06:02:34;;;;;;;5.63;5.15;;;;;;;15.69;65.84;95401.88;5054401;28;20198;-70
2022/09/07 06:05:01;;;;;;;5.45;5.00;;;;;;;15.69;66.38;95405.44;5053967;28;20510;-70
2022/09/07 06:07:28;;;;;;;6.60;5.90;;;;;;;15.72;66.41;95407.44;5053990;28;20233;-70
2022/09/07 06:09:56;;;;;;;6.30;5.68;;;;;;;15.76;66.36;95408.31;5054481;28;20558;-70
2022/09/07 06:12:23;;;;;;;6.00;5.50;;;;;;;15.79;66.67;95413.09;5053999;28;20201;-70
2022/09/07 06:14:49;;;;;;;5.65;5.13;;;;;;;15.83;66.32;95411.19;5054549;28;20193;-70
2022/09/07 06:17:16;;;;;;;5.32;4.88;;;;;;;15.88;66.26;95418.38;5053904;28;20212;-70
2022/09/07 06:19:43;;;;;;;6.53;5.90;;;;;;;15.89;66.39;95411.63;5054057;28;20201;-70
2022/09/07 06:22:10;;;;;;;7.10;5.88;;;;;;;15.93;65.67;95412.47;5053798;28;20202;-70
2022/09/07 06:24:37;;;;;;;6.72;6.10;;;;;;;15.93;65.81;95409.69;5054198;28;20194;-70
2022/09/07 06:27:05;;;;;;;6.47;5.78;;;;;;;16.00;65.82;95411.78;5053495;28;20216;-70
2022/09/07 06:29:32;;;;;;;6.32;5.10;;;;;;;16.10;64.91;95414.69;5053972;28;20202;-70
2022/09/07 06:31:59;;;;;;;5.40;4.90;;;;;;;16.18;64.95;95411.97;5053470;28;20201;-70
2022/09/07 06:34:25;;;;;;;5.07;4.60;;;;;;;16.23;63.74;95420.78;5054507;28;20198;-70
2022/09/07 06:36:52;;;;;;;4.70;4.20;;;;;;;16.26;63.32;95419.22;5053936;28;20205;-70
2022/09/07 06:39:19;;;;;;;5.15;4.63;;;;;;;16.27;63.54;95412.50;5053923;28;20208;-70
2022/09/07 06:41:46;;;;;;;4.40;4.00;;;;;;;16.31;63.55;95410.53;5053729;28;20229;-70
2022/09/07 06:44:14;;;;;;;3.85;3.55;;;;;;;16.39;63.67;95415.00;5057142;28;20190;-70
2022/09/07 06:46:41;;;;;;;5.93;4.30;;;;;;;16.49;63.44;95416.28;5057769;28;20201;-70
2022/09/07 06:49:07;;;;;;;4.88;4.15;;;;;;;16.54;62.86;95415.94;5057497;28;20206;-70
2022/09/07 06:51:34;;;;;;;4.43;3.97;;;;;;;16.62;63.52;95417.59;5057132;28;20217;-70
2022/09/07 06:54:04;;;;;;;5.18;4.72;;;;;;;16.69;63.37;95434.38;5057281;28;20197;-70
2022/09/07 06:56:31;;;;;;;6.45;4.40;;;;;;;16.74;62.38;95422.09;5057505;28;20279;-70
2022/09/07 06:58:58;;;;;;;4.60;3.90;;;;;;;16.79;62.38;95430.13;5057389;28;20190;-70
2022/09/07 07:01:27;;;;;;;4.90;4.40;;;;;;;16.84;62.42;95429.75;5057456;28;20296;-70
2022/09/07 07:03:54;;;;;;;3.95;3.55;;;;;;;16.89;61.75;95429.41;5056714;28;20185;-70
2022/09/07 07:06:21;;;;;;;4.30;3.72;;;;;;;16.94;60.83;95431.84;5056521;28;20193;-70
2022/09/07 07:08:48;;;;;;;3.90;3.50;;;;;;;16.95;60.38;95432.63;5057208;28;20205;-70
2022/09/07 07:11:16;;;;;;;4.53;3.50;;;;;;;16.97;60.57;95433.84;5056100;28;20241;-70
2022/09/07 07:13:44;;;;;;;3.88;3.28;;;;;;;17.01;60.97;95425.53;5056660;28;20214;-70
2022/09/07 07:16:12;;;;;;;3.50;3.03;;;;;;;17.07;60.70;95426.78;5056518;28;20212;-70
2022/09/07 07:18:41;;;;;;;4.55;3.53;;;;;;;17.14;60.75;95423.22;5057544;28;20225;-70
2022/09/07 07:21:09;;;;;;;3.47;3.17;;;;;;;17.20;59.88;95430.84;5056587;28;20194;-70
2022/09/07 07:23:36;;;;;;;4.82;3.15;;;;;;;17.27;59.57;95421.75;5056663;28;20209;-70
2022/09/07 07:26:03;;;;;;;5.68;3.45;;;;;;;17.32;59.46;95426.97;5056491;28;20217;-71
2022/09/07 07:28:30;;;;;;;4.85;3.83;;;;;;;17.36;59.16;95427.78;5057159;28;20510;-70
2022/09/07 07:30:58;;;;;;;3.92;3.47;;;;;;;17.41;59.14;95433.00;5056723;28;20236;-70
2022/09/07 07:33:25;;;;;;;3.70;3.03;;;;;;;17.50;59.29;95429.84;5056479;28;20209;-70
2022/09/07 07:35:53;;;;;;;3.65;3.05;;;;;;;17.55;58.69;95426.72;5056671;28;20190;-70
2022/09/07 07:38:20;;;;;;;4.55;3.38;;;;;;;17.63;58.86;95433.13;5056429;28;20194;-70
2022/09/07 07:40:53;;;;;;;3.60;3.20;;;;;;;17.68;58.18;95429.94;5040399;28;20197;-70
2022/09/07 07:43:20;;;;;;;3.88;3.35;;;;;;;17.75;58.15;95428.03;5056932;28;20590;-68
2022/09/07 07:45:47;;;;;;;5.03;3.55;;;;;;;17.84;58.12;95435.28;5057308;28;20268;-70
2022/09/07 07:48:14;;;;;;;4.25;3.85;;;;;;;17.91;57.79;95432.50;5055877;28;20195;-71
2022/09/07 07:50:41;;;;;;;3.90;3.42;;;;;;;17.97;57.92;95426.16;5057094;28;20210;-70
2022/09/07 07:53:09;;;;;;;6.75;4.00;;;;;;;18.00;57.04;95428.16;5056216;28;20194;-70
2022/09/07 07:55:37;;;;;;;3.88;3.45;;;;;;;18.10;56.99;95439.75;5055189;28;20217;-70
2022/09/07 07:58:03;;;;;;;5.50;4.05;;;;;;;18.09;55.96;95430.59;5056005;28;20240;-70
2022/09/07 08:00:30;;;;;;;4.13;3.72;;;;;;;18.14;57.47;95438.59;5056710;28;20194;-70
2022/09/07 08:02:57;;;;;;;4.30;3.90;;;;;;;18.19;56.23;95427.06;5055692;28;20210;-70
2022/09/07 08:05:24;;;;;;;3.92;3.55;;;;;;;18.24;57.24;95432.25;5056006;28;20201;-70
2022/09/07 08:07:50;;;;;;;4.20;3.80;;;;;;;18.37;57.62;95427.06;5055829;28;20240;-71
2022/09/07 08:10:18;;;;;;;4.93;3.78;;;;;;;18.51;56.73;95426.31;5055458;28;20221;-70
2022/09/07 08:12:46;;;;;;;4.90;3.90;;;;;;;18.61;56.47;95433.13;5056222;28;20217;-70
2022/09/07 08:15:12;;;;;;;4.18;3.78;;;;;;;18.65;55.69;95429.16;5055376;28;20289;-70
2022/09/07 08:17:40;;;;;;;4.10;3.70;;;;;;;18.75;56.24;95427.59;5056020;28;20210;-70
2022/09/07 08:20:08;;;;;;;4.05;3.75;;;;;;;18.90;56.53;95432.00;5055587;28;20208;-70
2022/09/07 08:22:36;;;;;;;5.45;3.90;;;;;;;19.02;55.42;95428.00;5039312;28;20209;-70
2022/09/07 08:25:03;;;;;;;4.93;3.95;;;;;;;19.16;56.96;95422.41;5056120;28;20204;-70
2022/09/07 08:27:32;;;;;;;5.95;3.72;;;;;;;19.31;55.05;95422.41;5056155;28;20213;-71
2022/09/07 08:29:59;;;;;;;4.03;3.72;;;;;;;19.44;54.23;95421.59;5054983;28;20206;-72
2022/09/07 08:32:26;;;;;;;5.28;3.60;;;;;;;19.55;54.14;95418.00;5055877;28;20688;-71
2022/09/07 08:34:53;;;;;;;4.43;3.90;;;;;;;19.61;54.10;95420.00;5056580;28;20189;-71
2022/09/07 08:37:19;;;;;;;5.80;3.70;;;;;;;19.73;52.87;95423.59;5055951;28;20178;-71
2022/09/07 08:39:46;;;;;;;4.68;3.50;;;;;;;19.78;53.27;95411.97;5056096;28;20205;-71
2022/09/07 08:42:35;;;;;;;4.10;3.70;;;;;;;19.76;52.91;95404.00;5055225;28;20201;-71
2022/09/07 08:45:05;;;;;;;3.97;3.67;;;;;;;19.90;54.13;95394.75;5055972;28;20182;-71
2022/09/07 08:47:36;;;;;;;4.20;3.80;;;;;;;20.06;53.71;95395.06;5056139;28;20197;-70
2022/09/07 08:50:05;;;;;;;4.75;4.22;;;;;;;20.20;53.07;95399.81;5055885;28;20208;-70
2022/09/07 08:52:42;;;;;;;6.65;5.95;;;;;;;20.35;52.06;95394.94;5055418;28;20214;-71
2022/09/07 08:55:14;;;;;;;4.78;3.90;;;;;;;20.43;52.32;95393.69;5055065;28;20202;-71
2022/09/07 08:57:47;;;;;;;4.35;4.05;;;;;;;20.55;52.35;95393.25;5055523;28;20598;-70
2022/09/07 09:00:16;;;;;;;4.65;3.85;;;;;;;20.66;51.43;95393.16;5055476;28;20190;-71
2022/09/07 09:02:43;;;;;;;4.28;3.97;;;;;;;20.78;51.74;95384.28;5054533;28;20197;-70
2022/09/07 09:05:17;;;;;;;4.18;3.78;;;;;;;20.91;52.15;95376.16;5054923;28;20255;-70
2022/09/07 09:07:53;;;;;;;4.28;3.92;;;;;;;20.91;50.92;95385.41;5054314;28;20727;-70
2022/09/07 09:10:23;;;;;;;4.53;4.13;;;;;;;20.89;51.32;95379.41;5054639;28;20208;-71
2022/09/07 09:13:00;;;;;;;4.93;4.50;;;;;;;20.98;51.97;95370.50;5071504;28;20201;-71
2022/09/07 09:15:32;;;;;;;5.72;4.60;;;;;;;21.05;51.22;95373.25;5055683;28;20203;-71
2022/09/07 09:18:04;;;;;;;4.72;4.32;;;;;;;21.04;51.27;95362.47;5054818;28;20205;-71
2022/09/07 09:20:35;;;;;;;5.20;4.30;;;;;;;21.09;50.59;95362.78;5055420;28;20230;-71
2022/09/07 09:23:11;;;;;;;5.38;4.68;;;;;;;21.20;50.17;95364.72;5055259;28;20265;-70
2022/09/07 09:25:40;;;;;;;4.90;4.55;;;;;;;21.28;50.41;95367.06;5054599;28;20286;-70
2022/09/07 09:28:11;;;;;;;4.60;4.20;;;;;;;21.37;50.21;95363.78;5054345;28;20212;-70
2022/09/07 09:30:38;;;;;;;4.05;3.78;;;;;;;21.44;50.19;95360.91;5054278;28;20202;-70
2022/09/07 09:33:16;;;;;;;3.90;3.60;;;;;;;21.61;50.91;95351.50;5055023;28;20190;-70
2022/09/07 09:35:44;;;;;;;4.78;4.30;;;;;;;21.64;48.35;95352.66;5054759;28;20203;-70
2022/09/07 09:38:32;;;;;;;4.72;3.97;;;;;;;21.65;49.47;95356.28;5055204;28;20182;-70
2022/09/07 09:41:03;;;;;;;4.95;4.45;;;;;;;21.74;49.64;95345.34;5055170;28;20189;-71
2022/09/07 09:43:35;;;;;;;5.43;3.97;;;;;;;21.88;49.25;95354.38;5055156;28;20194;-70
2022/09/07 09:46:02;;;;;;;5.35;4.82;;;;;;;22.02;48.64;95347.00;5054150;28;20198;-70
2022/09/07 09:48:32;;;;;;;4.95;4.43;;;;;;;22.11;48.07;95345.28;5054846;28;20258;-70
2022/09/07 09:51:00;;;;;;;4.55;4.15;;;;;;;22.17;47.98;95344.84;5053818;28;20283;-70
2022/09/07 09:53:31;;;;;;;5.80;4.40;;;;;;;22.26;48.63;95334.69;5054364;28;20295;-70
2022/09/07 09:55:59;;;;;;;4.18;3.78;;;;;;;22.30;48.08;95334.63;5053859;28;20205;-70
2022/09/07 09:58:32;;;;;;;5.00;3.97;;;;;;;22.42;48.20;95336.88;5054290;28;20202;-70
2022/09/07 10:01:01;;;;;;;4.47;4.07;;;;;;;22.58;46.21;95339.81;5054278;28;20194;-70
2022/09/07 10:03:29;;;;;;;4.78;4.07;;;;;;;22.56;46.76;95327.44;5054020;28;20224;-70
2022/09/07 10:05:56;;;;;;;4.43;4.13;;;;;;;22.59;46.64;95330.19;5053685;28;20202;-70
2022/09/07 10:08:25;;;;;;;4.28;3.88;;;;;;;22.65;46.60;95326.88;5053567;28;20234;-70
2022/09/07 10:10:57;;;;;;;4.32;3.97;;;;;;;22.74;47.31;95324.34;5054429;28;20598;-70
2022/09/07 10:13:28;;;;;;;4.65;4.05;;;;;;;22.85;47.04;95324.19;5054192;28;20208;-70
2022/09/07 10:15:57;;;;;;;5.75;4.38;;;;;;;22.89;45.84;95320.06;5054223;28;20212;-70
2022/09/07 10:18:32;;;;;;;4.50;4.10;;;;;;;22.95;45.81;95307.16;5056893;28;20193;-70
2022/09/07 10:21:22;;;;;;;4.53;4.05;;;;;;;23.03;45.88;95307.81;5058004;28;20201;-70
2022/09/07 10:23:53;;;;;;;5.65;4.20;;;;;;;23.18;45.89;95299.91;5057605;28;20193;-70
2022/09/07 10:26:24;;;;;;;6.70;4.03;;;;;;;23.21;45.45;95302.66;5057934;28;20299;-70
2022/09/07 10:29:06;;;;;;;4.63;4.18;;;;;;;23.28;44.92;95296.13;5057804;28;20201;-70
2022/09/07 10:31:38;;;;;;;5.00;4.60;;;;;;;23.30;45.34;95297.25;5057655;28;20220;-70
2022/09/07 10:34:10;;;;;;;4.63;4.22;;;;;;;23.44;44.77;95292.59;5057484;28;20190;-69
2022/09/07 10:36:42;;;;;;;8.45;4.80;;;;;;;23.51;44.92;95286.84;5057470;28;20205;-70
2022/09/07 10:39:15;;;;;;;4.57;4.18;;;;;;;23.62;44.90;95289.44;5057386;28;20202;-70
2022/09/07 10:41:50;;;;;;;4.22;3.92;;;;;;;23.64;43.93;95289.78;5057345;28;20197;-70
2022/09/07 10:44:22;;;;;;;4.88;4.47;;;;;;;23.65;43.43;95291.41;5057551;28;20197;-71
2022/09/07 10:46:53;;;;;;;4.30;4.00;;;;;;;23.67;42.24;95283.31;5057913;28;20198;-71
2022/09/07 10:49:26;;;;;;;4.13;3.72;;;;;;;23.61;43.29;95277.38;5057308;28;20201;-71
2022/09/07 10:52:06;;;;;;;4.72;4.32;;;;;;;23.71;43.27;95281.22;5057106;28;20221;-71
2022/09/07 10:54:40;;;;;;;4.28;3.90;;;;;;;23.78;43.31;95272.63;5056923;28;20205;-71
2022/09/07 10:57:21;;;;;;;6.10;4.70;;;;;;;23.84;43.79;95270.13;5057218;28;20212;-69
2022/09/07 10:59:54;;;;;;;4.72;4.32;;;;;;;23.74;44.72;95263.47;5057056;28;20221;-69
2022/09/07 11:02:28;;;;;;;4.70;4.30;;;;;;;23.66;45.67;95271.25;5057241;28;20190;-71
2022/09/07 11:05:01;;;;;;;6.20;4.50;;;;;;;23.70;44.32;95268.38;5056978;28;20630;-71
2022/09/07 11:07:45;;;;;;;4.47;3.97;;;;;;;23.71;43.88;95261.50;5056998;28;20229;-70
2022/09/07 11:10:19;;;;;;;4.47;4.18;;;;;;;23.68;44.21;95260.38;5056978;28;20216;-70
2022/09/07 11:12:46;;;;;;;5.00;4.50;;;;;;;23.68;45.14;95257.56;5057200;28;20225;-71
2022/09/07 11:15:19;;;;;;;5.20;4.70;;;;;;;23.78;44.29;95255.72;5056820;28;20208;-71
2022/09/07 11:17:49;;;;;;;4.95;3.80;;;;;;;23.81;45.24;95249.25;5056742;28;20209;-70
2022/09/07 11:20:23;;;;;;;4.60;4.15;;;;;;;23.76;45.41;95259.00;5056558;28;20200;-70
2022/09/07 11:22:52;;;;;;;4.70;4.07;;;;;;;23.84;45.12;95242.75;5056792;28;20198;-71
2022/09/07 11:25:23;;;;;;;4.53;4.22;;;;;;;23.94;44.24;95240.94;5056934;28;20186;-71
2022/09/07 11:27:53;;;;;;;4.72;4.32;;;;;;;23.84;44.29;95230.69;5057610;28;20194;-70
2022/09/07 11:30:21;;;;;;;4.93;4.43;;;;;;;23.86;45.81;95237.47;5057778;28;20208;-70
2022/09/07 11:32:55;;;;;;;4.78;4.38;;;;;;;23.97;43.93;95238.03;5056285;28;20232;-70
2022/09/07 11:35:31;;;;;;;4.90;4.57;;;;;;;24.00;43.42;95233.53;5056657;28;20565;-70
2022/09/07 11:38:02;;;;;;;4.72;4.32;;;;;;;24.00;43.27;95227.91;5056513;28;20211;-70
2022/09/07 11:40:31;;;;;;;5.20;4.70;;;;;;;24.04;44.23;95237.09;5056465;28;20206;-70
2022/09/07 11:43:01;;;;;;;4.75;4.28;;;;;;;24.12;43.69;95234.91;5056083;28;20197;-70
2022/09/07 11:45:32;;;;;;;5.15;4.65;;;;;;;24.11;43.45;95236.94;5056558;28;20198;-70